sensor_id;sensor_type;location;lat;lon;timestamp;P1;durP1;ratioP1;P2;durP2;ratioP2
6467;SDS011;3267;48.794;9.928;2023-06-10T04:03:01;4.03;;;3.50;;
6467;SDS011;3267;48.794;9.928;2023-06-10T04:05:28;3.50;;;3.20;;
6467;SDS011;3267;48.794;9.928;2023-06-10T04:07:53;3.75;;;3.33;;
6467;SDS011;3267;48.794;9.928;2023-06-10T04:10:19;3.50;;;3.20;;
6467;SDS011;3267;48.794;9.928;2023-06-10T04:12:45;3.95;;;3.55;;
6467;SDS011;3267;48.794;9.928;2023-06-10T04:15:11;4.25;;;3.25;;
6467;SDS011;3267;48.794;9.928;2023-06-10T04:17:37;3.28;;;3.08;;
6467;SDS011;3267;48.794;9.928;2023-06-10T04:20:03;3.92;;;3.60;;
6467;SDS011;3267;48.794;9.928;2023-06-10T04:22:31;6.10;;;3.38;;
6467;SDS011;3267;48.794;9.928;2023-06-10T04:24:57;4.40;;;3.58;;
6467;SDS011;3267;48.794;9.928;2023-06-10T04:27:24;4.13;;;3.58;;
6467;SDS011;3267;48.794;9.928;2023-06-10T04:29:49;3.53;;;3.10;;
6467;SDS011;3267;48.794;9.928;2023-06-10T04:32:15;4.00;;;3.60;;
6467;SDS011;3267;48.794;9.928;2023-06-10T04:34:40;3.78;;;3.47;;
6467;SDS011;3267;48.794;9.928;2023-06-10T04:37:06;3.47;;;3.17;;
6467;SDS011;3267;48.794;9.928;2023-06-10T04:39:32;3.35;;;3.05;;
6467;SDS011;3267;48.794;9.928;2023-06-10T04:41:57;3.60;;;3.30;;
6467;SDS011;3267;48.794;9.928;2023-06-10T04:44:24;3.80;;;3.50;;
6467;SDS011;3267;48.794;9.928;2023-06-10T04:46:49;3.83;;;3.53;;
6467;SDS011;3267;48.794;9.928;2023-06-10T04:49:15;3.40;;;3.10;;
6467;SDS011;3267;48.794;9.928;2023-06-10T04:51:41;3.85;;;3.40;;
6467;SDS011;3267;48.794;9.928;2023-06-10T04:54:06;4.82;;;3.60;;
6467;SDS011;3267;48.794;9.928;2023-06-10T04:56:32;5.22;;;3.63;;
6467;SDS011;3267;48.794;9.928;2023-06-10T04:58:58;4.70;;;3.90;;
6467;SDS011;3267;48.794;9.928;2023-06-10T05:01:24;4.13;;;3.75;;
6467;SDS011;3267;48.794;9.928;2023-06-10T05:03:50;4.28;;;3.63;;
6467;SDS011;3267;48.794;9.928;2023-06-10T05:06:15;5.75;;;3.65;;
6467;SDS011;3267;48.794;9.928;2023-06-10T05:08:41;6.97;;;3.88;;
6467;SDS011;3267;48.794;9.928;2023-06-10T05:11:07;3.47;;;3.05;;
6467;SDS011;3267;48.794;9.928;2023-06-10T05:13:32;5.07;;;3.95;;
6467;SDS011;3267;48.794;9.928;2023-06-10T05:15:58;4.20;;;3.63;;
6467;SDS011;3267;48.794;9.928;2023-06-10T05:18:24;3.88;;;3.58;;
6467;SDS011;3267;48.794;9.928;2023-06-10T05:20:49;4.95;;;3.28;;
6467;SDS011;3267;48.794;9.928;2023-06-10T05:23:15;4.80;;;3.20;;
6467;SDS011;3267;48.794;9.928;2023-06-10T05:25:41;4.65;;;3.47;;
6467;SDS011;3267;48.794;9.928;2023-06-10T05:28:07;7.97;;;3.70;;
6467;SDS011;3267;48.794;9.928;2023-06-10T05:30:37;5.47;;;3.78;;
6467;SDS011;3267;48.794;9.928;2023-06-10T05:33:03;5.53;;;3.50;;
6467;SDS011;3267;48.794;9.928;2023-06-10T05:35:30;4.07;;;3.67;;
6467;SDS011;3267;48.794;9.928;2023-06-10T05:37:55;7.70;;;3.70;;
6467;SDS011;3267;48.794;9.928;2023-06-10T05:40:21;5.28;;;3.38;;
6467;SDS011;3267;48.794;9.928;2023-06-10T05:42:47;3.58;;;3.28;;
6467;SDS011;3267;48.794;9.928;2023-06-10T05:45:13;4.28;;;3.47;;
6467;SDS011;3267;48.794;9.928;2023-06-10T05:47:38;3.70;;;3.40;;
6467;SDS011;3267;48.794;9.928;2023-06-10T05:50:05;5.72;;;3.70;;
6467;SDS011;3267;48.794;9.928;2023-06-10T05:52:33;4.50;;;3.88;;
6467;SDS011;3267;48.794;9.928;2023-06-10T05:54:59;4.53;;;3.30;;
6467;SDS011;3267;48.794;9.928;2023-06-10T05:57:25;3.25;;;3.00;;
6467;SDS011;3267;48.794;9.928;2023-06-10T05:59:51;4.95;;;3.28;;
6467;SDS011;3267;48.794;9.928;2023-06-10T06:02:17;5.18;;;3.20;;
6467;SDS011;3267;48.794;9.928;2023-06-10T06:04:42;3.13;;;2.92;;
6467;SDS011;3267;48.794;9.928;2023-06-10T06:07:08;3.28;;;2.97;;
6467;SDS011;3267;48.794;9.928;2023-06-10T06:09:34;3.33;;;3.13;;
6467;SDS011;3267;48.794;9.928;2023-06-10T06:11:59;5.32;;;2.72;;
6467;SDS011;3267;48.794;9.928;2023-06-10T06:14:25;4.38;;;3.08;;
6467;SDS011;3267;48.794;9.928;2023-06-10T06:16:51;3.38;;;2.90;;
6467;SDS011;3267;48.794;9.928;2023-06-10T06:19:16;3.50;;;2.97;;
6467;SDS011;3267;48.794;9.928;2023-06-10T06:21:42;3.15;;;2.88;;
6467;SDS011;3267;48.794;9.928;2023-06-10T06:24:08;3.05;;;2.80;;
6467;SDS011;3267;48.794;9.928;2023-06-10T06:26:33;4.05;;;3.08;;
6467;SDS011;3267;48.794;9.928;2023-06-10T06:28:59;3.50;;;2.72;;
6467;SDS011;3267;48.794;9.928;2023-06-10T06:31:24;6.05;;;3.35;;
6467;SDS011;3267;48.794;9.928;2023-06-10T06:33:50;3.20;;;2.90;;
6467;SDS011;3267;48.794;9.928;2023-06-10T06:36:16;3.10;;;2.90;;
6467;SDS011;3267;48.794;9.928;2023-06-10T06:38:41;2.50;;;2.28;;
6467;SDS011;3267;48.794;9.928;2023-06-10T06:41:07;6.25;;;3.00;;
6467;SDS011;3267;48.794;9.928;2023-06-10T06:43:32;3.53;;;2.95;;
6467;SDS011;3267;48.794;9.928;2023-06-10T06:45:58;2.90;;;2.70;;
6467;SDS011;3267;48.794;9.928;2023-06-10T06:48:24;3.03;;;2.65;;
6467;SDS011;3267;48.794;9.928;2023-06-10T06:50:50;3.83;;;2.22;;
6467;SDS011;3267;48.794;9.928;2023-06-10T06:53:16;2.45;;;2.22;;
6467;SDS011;3267;48.794;9.928;2023-06-10T06:55:41;3.45;;;2.92;;
6467;SDS011;3267;48.794;9.928;2023-06-10T06:58:07;2.78;;;2.50;;
6467;SDS011;3267;48.794;9.928;2023-06-10T07:00:33;2.65;;;2.45;;
6467;SDS011;3267;48.794;9.928;2023-06-10T07:02:58;3.72;;;2.60;;
6467;SDS011;3267;48.794;9.928;2023-06-10T07:05:24;2.58;;;2.38;;
6467;SDS011;3267;48.794;9.928;2023-06-10T07:07:53;2.47;;;2.05;;
6467;SDS011;3267;48.794;9.928;2023-06-10T07:10:26;3.25;;;2.92;;
6467;SDS011;3267;48.794;9.928;2023-06-10T07:12:52;4.85;;;2.60;;
6467;SDS011;3267;48.794;9.928;2023-06-10T07:15:18;3.63;;;2.28;;
6467;SDS011;3267;48.794;9.928;2023-06-10T07:17:44;4.78;;;2.30;;
6467;SDS011;3267;48.794;9.928;2023-06-10T07:20:10;3.08;;;2.40;;
6467;SDS011;3267;48.794;9.928;2023-06-10T07:22:36;2.67;;;2.47;;
6467;SDS011;3267;48.794;9.928;2023-06-10T07:25:04;2.25;;;2.05;;
6467;SDS011;3267;48.794;9.928;2023-06-10T07:27:30;2.63;;;2.42;;
6467;SDS011;3267;48.794;9.928;2023-06-10T07:29:55;3.05;;;2.20;;
6467;SDS011;3267;48.794;9.928;2023-06-10T07:32:21;2.78;;;2.53;;
6467;SDS011;3267;48.794;9.928;2023-06-10T07:34:48;4.15;;;1.90;;
6467;SDS011;3267;48.794;9.928;2023-06-10T07:37:14;2.65;;;2.45;;
6467;SDS011;3267;48.794;9.928;2023-06-10T07:39:40;2.63;;;2.42;;
6467;SDS011;3267;48.794;9.928;2023-06-10T07:42:06;2.75;;;2.47;;
6467;SDS011;3267;48.794;9.928;2023-06-10T07:44:32;2.85;;;2.38;;
6467;SDS011;3267;48.794;9.928;2023-06-10T07:46:57;2.70;;;2.50;;
6467;SDS011;3267;48.794;9.928;2023-06-10T07:49:23;5.80;;;2.60;;
6467;SDS011;3267;48.794;9.928;2023-06-10T07:51:50;2.30;;;2.10;;
6467;SDS011;3267;48.794;9.928;2023-06-10T07:54:15;2.42;;;2.17;;
6467;SDS011;3267;48.794;9.928;2023-06-10T07:56:41;2.35;;;2.15;;
6467;SDS011;3267;48.794;9.928;2023-06-10T07:59:07;3.10;;;2.33;;
6467;SDS011;3267;48.794;9.928;2023-06-10T08:01:32;3.25;;;2.50;;
6467;SDS011;3267;48.794;9.928;2023-06-10T08:03:58;2.80;;;2.35;;
6467;SDS011;3267;48.794;9.928;2023-06-10T08:06:23;2.92;;;2.50;;
6467;SDS011;3267;48.794;9.928;2023-06-10T08:08:49;3.08;;;2.60;;
6467;SDS011;3267;48.794;9.928;2023-06-10T08:11:15;2.30;;;2.10;;
6467;SDS011;3267;48.794;9.928;2023-06-10T08:13:40;2.50;;;2.30;;
6467;SDS011;3267;48.794;9.928;2023-06-10T08:16:06;3.42;;;2.20;;
6467;SDS011;3267;48.794;9.928;2023-06-10T08:18:32;3.72;;;2.20;;
6467;SDS011;3267;48.794;9.928;2023-06-10T08:20:58;4.50;;;2.00;;
6467;SDS011;3267;48.794;9.928;2023-06-10T08:23:24;3.20;;;2.90;;
6467;SDS011;3267;48.794;9.928;2023-06-10T08:25:50;2.47;;;2.30;;
6467;SDS011;3267;48.794;9.928;2023-06-10T08:28:16;3.55;;;2.55;;
6467;SDS011;3267;48.794;9.928;2023-06-10T08:30:42;2.75;;;2.55;;
6467;SDS011;3267;48.794;9.928;2023-06-10T08:33:07;2.95;;;2.75;;
6467;SDS011;3267;48.794;9.928;2023-06-10T08:35:33;3.65;;;2.35;;
6467;SDS011;3267;48.794;9.928;2023-06-10T08:37:59;2.63;;;2.42;;
6467;SDS011;3267;48.794;9.928;2023-06-10T08:40:24;3.13;;;2.80;;
6467;SDS011;3267;48.794;9.928;2023-06-10T08:42:53;4.97;;;2.13;;
6467;SDS011;3267;48.794;9.928;2023-06-10T08:45:24;2.70;;;2.28;;
6467;SDS011;3267;48.794;9.928;2023-06-10T08:47:56;7.75;;;2.90;;
6467;SDS011;3267;48.794;9.928;2023-06-10T08:50:23;3.40;;;3.10;;
6467;SDS011;3267;48.794;9.928;2023-06-10T08:52:50;4.20;;;2.97;;
6467;SDS011;3267;48.794;9.928;2023-06-10T08:55:23;2.95;;;2.75;;
6467;SDS011;3267;48.794;9.928;2023-06-10T08:57:57;3.13;;;2.83;;
6467;SDS011;3267;48.794;9.928;2023-06-10T09:00:25;3.72;;;2.42;;
6467;SDS011;3267;48.794;9.928;2023-06-10T09:02:52;2.85;;;2.65;;
6467;SDS011;3267;48.794;9.928;2023-06-10T09:05:17;2.83;;;2.63;;
6467;SDS011;3267;48.794;9.928;2023-06-10T09:07:45;3.20;;;2.72;;
6467;SDS011;3267;48.794;9.928;2023-06-10T09:10:12;3.05;;;2.85;;
6467;SDS011;3267;48.794;9.928;2023-06-10T09:12:38;3.33;;;2.75;;
6467;SDS011;3267;48.794;9.928;2023-06-10T09:15:05;4.80;;;2.63;;
6467;SDS011;3267;48.794;9.928;2023-06-10T09:17:31;6.53;;;3.10;;
6467;SDS011;3267;48.794;9.928;2023-06-10T09:19:58;4.68;;;3.00;;
6467;SDS011;3267;48.794;9.928;2023-06-10T09:22:25;3.08;;;2.78;;
6467;SDS011;3267;48.794;9.928;2023-06-10T09:24:52;3.95;;;2.83;;
6467;SDS011;3267;48.794;9.928;2023-06-10T09:27:29;5.28;;;3.40;;
6467;SDS011;3267;48.794;9.928;2023-06-10T09:29:56;6.80;;;3.30;;
6467;SDS011;3267;48.794;9.928;2023-06-10T09:32:22;2.58;;;2.38;;
6467;SDS011;3267;48.794;9.928;2023-06-10T09:34:49;4.38;;;2.67;;
6467;SDS011;3267;48.794;9.928;2023-06-10T09:37:25;4.50;;;2.83;;
6467;SDS011;3267;48.794;9.928;2023-06-10T09:40:01;2.88;;;2.67;;
6467;SDS011;3267;48.794;9.928;2023-06-10T09:42:36;4.97;;;2.45;;
6467;SDS011;3267;48.794;9.928;2023-06-10T09:45:03;2.47;;;2.28;;
6467;SDS011;3267;48.794;9.928;2023-06-10T09:47:30;3.28;;;3.00;;
6467;SDS011;3267;48.794;9.928;2023-06-10T09:49:55;5.30;;;2.92;;
6467;SDS011;3267;48.794;9.928;2023-06-10T09:52:22;3.15;;;2.90;;
6467;SDS011;3267;48.794;9.928;2023-06-10T09:54:49;3.10;;;2.80;;
6467;SDS011;3267;48.794;9.928;2023-06-10T09:57:16;2.50;;;2.30;;
6467;SDS011;3267;48.794;9.928;2023-06-10T09:59:42;3.58;;;2.63;;
6467;SDS011;3267;48.794;9.928;2023-06-10T10:02:14;3.60;;;2.42;;
6467;SDS011;3267;48.794;9.928;2023-06-10T10:04:41;3.63;;;2.85;;
6467;SDS011;3267;48.794;9.928;2023-06-10T10:07:08;2.80;;;2.60;;
6467;SDS011;3267;48.794;9.928;2023-06-10T10:09:37;3.15;;;2.40;;
6467;SDS011;3267;48.794;9.928;2023-06-10T10:12:14;2.47;;;2.28;;
6467;SDS011;3267;48.794;9.928;2023-06-10T10:14:45;2.70;;;2.50;;
6467;SDS011;3267;48.794;9.928;2023-06-10T10:17:13;4.00;;;2.63;;
6467;SDS011;3267;48.794;9.928;2023-06-10T10:19:43;2.92;;;2.47;;
6467;SDS011;3267;48.794;9.928;2023-06-10T10:22:26;4.90;;;3.20;;
6467;SDS011;3267;48.794;9.928;2023-06-10T10:24:55;2.80;;;2.58;;
6467;SDS011;3267;48.794;9.928;2023-06-10T10:30:28;2.38;;;2.17;;
6467;SDS011;3267;48.794;9.928;2023-06-10T10:32:58;4.05;;;2.47;;
6467;SDS011;3267;48.794;9.928;2023-06-10T10:35:30;2.72;;;2.53;;
6467;SDS011;3267;48.794;9.928;2023-06-10T10:37:57;2.67;;;2.47;;
6467;SDS011;3267;48.794;9.928;2023-06-10T10:40:24;4.80;;;2.83;;
6467;SDS011;3267;48.794;9.928;2023-06-10T10:42:51;2.70;;;2.50;;
6467;SDS011;3267;48.794;9.928;2023-06-10T10:45:18;3.28;;;2.72;;
6467;SDS011;3267;48.794;9.928;2023-06-10T10:47:46;2.92;;;2.63;;
6467;SDS011;3267;48.794;9.928;2023-06-10T10:50:17;2.60;;;2.40;;
6467;SDS011;3267;48.794;9.928;2023-06-10T10:52:58;2.45;;;2.25;;
6467;SDS011;3267;48.794;9.928;2023-06-10T10:55:26;4.10;;;3.45;;
6467;SDS011;3267;48.794;9.928;2023-06-10T10:57:59;3.35;;;2.70;;
6467;SDS011;3267;48.794;9.928;2023-06-10T11:03:14;2.50;;;2.30;;
6467;SDS011;3267;48.794;9.928;2023-06-10T11:05:45;3.08;;;2.65;;
6467;SDS011;3267;48.794;9.928;2023-06-10T11:09:00;2.50;;;2.30;;
6467;SDS011;3267;48.794;9.928;2023-06-10T11:11:27;3.97;;;2.42;;
6467;SDS011;3267;48.794;9.928;2023-06-10T11:13:57;2.67;;;2.35;;
6467;SDS011;3267;48.794;9.928;2023-06-10T11:16:27;4.00;;;2.53;;
6467;SDS011;3267;48.794;9.928;2023-06-10T11:18:53;3.65;;;2.80;;
6467;SDS011;3267;48.794;9.928;2023-06-10T11:21:20;2.42;;;2.20;;
6467;SDS011;3267;48.794;9.928;2023-06-10T11:23:46;2.50;;;2.10;;
6467;SDS011;3267;48.794;9.928;2023-06-10T11:26:13;2.67;;;2.45;;
6467;SDS011;3267;48.794;9.928;2023-06-10T11:31:30;3.20;;;2.42;;
6467;SDS011;3267;48.794;9.928;2023-06-10T11:34:03;2.53;;;2.33;;
6467;SDS011;3267;48.794;9.928;2023-06-10T11:36:31;3.65;;;2.67;;
6467;SDS011;3267;48.794;9.928;2023-06-10T11:39:03;2.40;;;2.20;;
6467;SDS011;3267;48.794;9.928;2023-06-10T11:41:30;2.80;;;2.20;;
6467;SDS011;3267;48.794;9.928;2023-06-10T11:44:03;5.50;;;2.33;;
6467;SDS011;3267;48.794;9.928;2023-06-10T11:46:32;3.65;;;2.58;;
6467;SDS011;3267;48.794;9.928;2023-06-10T11:48:59;2.00;;;1.90;;
6467;SDS011;3267;48.794;9.928;2023-06-10T11:51:25;2.55;;;2.35;;
6467;SDS011;3267;48.794;9.928;2023-06-10T11:53:52;1.73;;;1.63;;
6467;SDS011;3267;48.794;9.928;2023-06-10T11:56:21;1.70;;;1.60;;
6467;SDS011;3267;48.794;9.928;2023-06-10T11:59:07;2.20;;;2.00;;
6467;SDS011;3267;48.794;9.928;2023-06-10T12:01:33;2.15;;;1.95;;
6467;SDS011;3267;48.794;9.928;2023-06-10T12:04:08;3.70;;;1.77;;
6467;SDS011;3267;48.794;9.928;2023-06-10T12:09:05;3.22;;;1.90;;
6467;SDS011;3267;48.794;9.928;2023-06-10T12:11:41;2.30;;;2.10;;
6467;SDS011;3267;48.794;9.928;2023-06-10T12:14:08;4.53;;;1.92;;
6467;SDS011;3267;48.794;9.928;2023-06-10T12:16:34;1.63;;;1.52;;
6467;SDS011;3267;48.794;9.928;2023-06-10T12:19:03;1.60;;;1.50;;
6467;SDS011;3267;48.794;9.928;2023-06-10T12:21:31;1.63;;;1.52;;
6467;SDS011;3267;48.794;9.928;2023-06-10T12:26:42;3.60;;;1.67;;
6467;SDS011;3267;48.794;9.928;2023-06-10T12:29:15;2.20;;;2.00;;
6467;SDS011;3267;48.794;9.928;2023-06-10T12:31:55;2.20;;;2.08;;
6467;SDS011;3267;48.794;9.928;2023-06-10T12:34:29;8.05;;;2.20;;
6467;SDS011;3267;48.794;9.928;2023-06-10T12:36:55;1.92;;;1.83;;
6467;SDS011;3267;48.794;9.928;2023-06-10T12:39:21;2.42;;;1.70;;
6467;SDS011;3267;48.794;9.928;2023-06-10T12:41:50;6.05;;;2.00;;
6467;SDS011;3267;48.794;9.928;2023-06-10T12:44:17;3.42;;;2.40;;
6467;SDS011;3267;48.794;9.928;2023-06-10T12:46:42;2.60;;;2.10;;
6467;SDS011;3267;48.794;9.928;2023-06-10T12:49:18;4.95;;;1.88;;
6467;SDS011;3267;48.794;9.928;2023-06-10T12:51:46;3.33;;;2.10;;
6467;SDS011;3267;48.794;9.928;2023-06-10T12:54:12;2.40;;;1.77;;
6467;SDS011;3267;48.794;9.928;2023-06-10T12:56:38;2.50;;;2.30;;
6467;SDS011;3267;48.794;9.928;2023-06-10T12:59:04;2.42;;;2.22;;
6467;SDS011;3267;48.794;9.928;2023-06-10T13:01:30;2.67;;;2.20;;
6467;SDS011;3267;48.794;9.928;2023-06-10T13:03:56;2.38;;;2.17;;
6467;SDS011;3267;48.794;9.928;2023-06-10T13:06:22;2.08;;;1.98;;
6467;SDS011;3267;48.794;9.928;2023-06-10T13:08:48;2.30;;;2.10;;
6467;SDS011;3267;48.794;9.928;2023-06-10T13:11:14;2.10;;;2.00;;
6467;SDS011;3267;48.794;9.928;2023-06-10T13:13:39;2.50;;;1.90;;
6467;SDS011;3267;48.794;9.928;2023-06-10T13:16:05;2.50;;;2.30;;
6467;SDS011;3267;48.794;9.928;2023-06-10T13:18:32;1.80;;;1.70;;
6467;SDS011;3267;48.794;9.928;2023-06-10T13:21:03;1.75;;;1.60;;
6467;SDS011;3267;48.794;9.928;2023-06-10T13:23:29;2.15;;;1.90;;
6467;SDS011;3267;48.794;9.928;2023-06-10T13:25:56;2.10;;;2.00;;
6467;SDS011;3267;48.794;9.928;2023-06-10T13:28:22;2.08;;;1.88;;
6467;SDS011;3267;48.794;9.928;2023-06-10T13:30:48;2.97;;;2.08;;
6467;SDS011;3267;48.794;9.928;2023-06-10T13:33:13;1.85;;;1.75;;
6467;SDS011;3267;48.794;9.928;2023-06-10T13:35:39;1.83;;;1.73;;
6467;SDS011;3267;48.794;9.928;2023-06-10T13:38:06;2.15;;;1.85;;
6467;SDS011;3267;48.794;9.928;2023-06-10T13:40:32;1.95;;;1.85;;
6467;SDS011;3267;48.794;9.928;2023-06-10T13:42:58;2.58;;;2.00;;
6467;SDS011;3267;48.794;9.928;2023-06-10T13:45:24;1.80;;;1.70;;
6467;SDS011;3267;48.794;9.928;2023-06-10T13:47:50;3.25;;;1.90;;
6467;SDS011;3267;48.794;9.928;2023-06-10T13:50:15;2.00;;;1.90;;
6467;SDS011;3267;48.794;9.928;2023-06-10T13:52:41;1.65;;;1.55;;
6467;SDS011;3267;48.794;9.928;2023-06-10T13:55:07;2.00;;;1.90;;
6467;SDS011;3267;48.794;9.928;2023-06-10T13:57:33;2.72;;;1.98;;
6467;SDS011;3267;48.794;9.928;2023-06-10T13:59:59;2.95;;;1.70;;
6467;SDS011;3267;48.794;9.928;2023-06-10T14:02:24;1.92;;;1.83;;
6467;SDS011;3267;48.794;9.928;2023-06-10T14:04:50;1.73;;;1.63;;
6467;SDS011;3267;48.794;9.928;2023-06-10T14:07:16;2.20;;;2.00;;
6467;SDS011;3267;48.794;9.928;2023-06-10T14:09:42;1.83;;;1.67;;
6467;SDS011;3267;48.794;9.928;2023-06-10T14:12:08;1.92;;;1.83;;
6467;SDS011;3267;48.794;9.928;2023-06-10T14:14:35;1.70;;;1.60;;
6467;SDS011;3267;48.794;9.928;2023-06-10T14:17:01;1.90;;;1.80;;
6467;SDS011;3267;48.794;9.928;2023-06-10T14:19:28;3.20;;;1.80;;
6467;SDS011;3267;48.794;9.928;2023-06-10T14:21:54;1.75;;;1.65;;
6467;SDS011;3267;48.794;9.928;2023-06-10T14:24:20;2.10;;;2.00;;
6467;SDS011;3267;48.794;9.928;2023-06-10T14:26:46;2.10;;;1.90;;
6467;SDS011;3267;48.794;9.928;2023-06-10T14:29:12;2.65;;;1.80;;
6467;SDS011;3267;48.794;9.928;2023-06-10T14:31:43;1.77;;;1.67;;
6467;SDS011;3267;48.794;9.928;2023-06-10T14:34:08;2.13;;;1.92;;
6467;SDS011;3267;48.794;9.928;2023-06-10T14:36:34;2.72;;;2.17;;
6467;SDS011;3267;48.794;9.928;2023-06-10T14:39:00;2.22;;;2.08;;
6467;SDS011;3267;48.794;9.928;2023-06-10T14:41:27;2.40;;;2.20;;
6467;SDS011;3267;48.794;9.928;2023-06-10T14:43:52;2.58;;;2.40;;
6467;SDS011;3267;48.794;9.928;2023-06-10T14:46:18;2.47;;;2.28;;
6467;SDS011;3267;48.794;9.928;2023-06-10T14:48:45;1.92;;;1.83;;
6467;SDS011;3267;48.794;9.928;2023-06-10T14:51:11;2.20;;;2.00;;
6467;SDS011;3267;48.794;9.928;2023-06-10T14:53:37;1.77;;;1.67;;
6467;SDS011;3267;48.794;9.928;2023-06-10T14:56:03;2.13;;;1.55;;
6467;SDS011;3267;48.794;9.928;2023-06-10T14:58:29;2.08;;;1.98;;
6467;SDS011;3267;48.794;9.928;2023-06-10T15:00:55;2.50;;;2.30;;
6467;SDS011;3267;48.794;9.928;2023-06-10T15:03:21;2.20;;;2.10;;
6467;SDS011;3267;48.794;9.928;2023-06-10T15:05:46;3.70;;;1.80;;
6467;SDS011;3267;48.794;9.928;2023-06-10T15:08:17;2.53;;;2.33;;
6467;SDS011;3267;48.794;9.928;2023-06-10T15:10:42;3.35;;;2.20;;
6467;SDS011;3267;48.794;9.928;2023-06-10T15:13:08;3.00;;;2.25;;
6467;SDS011;3267;48.794;9.928;2023-06-10T15:15:33;2.40;;;2.30;;
6467;SDS011;3267;48.794;9.928;2023-06-10T15:17:59;3.08;;;1.92;;
6467;SDS011;3267;48.794;9.928;2023-06-10T15:20:25;5.30;;;2.30;;
6467;SDS011;3267;48.794;9.928;2023-06-10T15:22:50;2.03;;;1.92;;
6467;SDS011;3267;48.794;9.928;2023-06-10T15:25:16;2.97;;;1.88;;
6467;SDS011;3267;48.794;9.928;2023-06-10T15:27:42;3.28;;;2.22;;
6467;SDS011;3267;48.794;9.928;2023-06-10T15:30:08;2.40;;;2.20;;
6467;SDS011;3267;48.794;9.928;2023-06-10T15:32:36;2.53;;;2.30;;
6467;SDS011;3267;48.794;9.928;2023-06-10T15:35:02;2.50;;;2.40;;
6467;SDS011;3267;48.794;9.928;2023-06-10T15:37:27;2.38;;;2.17;;
6467;SDS011;3267;48.794;9.928;2023-06-10T15:39:53;2.60;;;2.40;;
6467;SDS011;3267;48.794;9.928;2023-06-10T15:42:18;2.80;;;2.45;;
6467;SDS011;3267;48.794;9.928;2023-06-10T15:44:44;2.90;;;2.28;;
6467;SDS011;3267;48.794;9.928;2023-06-10T15:47:10;2.72;;;2.33;;
6467;SDS011;3267;48.794;9.928;2023-06-10T15:49:35;3.33;;;2.22;;
6467;SDS011;3267;48.794;9.928;2023-06-10T15:52:01;3.05;;;2.50;;
6467;SDS011;3267;48.794;9.928;2023-06-10T15:54:27;2.75;;;2.55;;
6467;SDS011;3267;48.794;9.928;2023-06-10T15:56:53;2.85;;;2.63;;
6467;SDS011;3267;48.794;9.928;2023-06-10T15:59:18;4.30;;;3.08;;
6467;SDS011;3267;48.794;9.928;2023-06-10T16:01:44;2.88;;;2.50;;
6467;SDS011;3267;48.794;9.928;2023-06-10T16:04:11;3.70;;;2.75;;
6467;SDS011;3267;48.794;9.928;2023-06-10T16:06:36;2.63;;;2.30;;
6467;SDS011;3267;48.794;9.928;2023-06-10T16:09:02;2.92;;;2.70;;
6467;SDS011;3267;48.794;9.928;2023-06-10T16:11:27;2.55;;;2.35;;
6467;SDS011;3267;48.794;9.928;2023-06-10T16:13:53;2.50;;;2.30;;
6467;SDS011;3267;48.794;9.928;2023-06-10T16:16:19;2.15;;;2.05;;
6467;SDS011;3267;48.794;9.928;2023-06-10T16:18:44;2.47;;;2.38;;
6467;SDS011;3267;48.794;9.928;2023-06-10T16:21:10;3.35;;;3.05;;
6467;SDS011;3267;48.794;9.928;2023-06-10T16:23:36;3.58;;;2.42;;
6467;SDS011;3267;48.794;9.928;2023-06-10T16:26:02;2.78;;;2.17;;
6467;SDS011;3267;48.794;9.928;2023-06-10T16:28:28;2.45;;;2.33;;
6467;SDS011;3267;48.794;9.928;2023-06-10T16:30:53;2.42;;;2.22;;
6467;SDS011;3267;48.794;9.928;2023-06-10T16:33:19;2.25;;;2.15;;
6467;SDS011;3267;48.794;9.928;2023-06-10T16:35:46;2.53;;;2.33;;
6467;SDS011;3267;48.794;9.928;2023-06-10T16:38:11;2.65;;;2.45;;
6467;SDS011;3267;48.794;9.928;2023-06-10T16:40:37;4.18;;;2.28;;
6467;SDS011;3267;48.794;9.928;2023-06-10T16:43:03;3.08;;;2.17;;
6467;SDS011;3267;48.794;9.928;2023-06-10T16:45:28;2.05;;;1.90;;
6467;SDS011;3267;48.794;9.928;2023-06-10T16:47:54;2.92;;;1.90;;
6467;SDS011;3267;48.794;9.928;2023-06-10T16:50:19;2.00;;;1.90;;
6467;SDS011;3267;48.794;9.928;2023-06-10T16:52:45;3.95;;;2.30;;
6467;SDS011;3267;48.794;9.928;2023-06-10T16:55:11;2.38;;;2.20;;
6467;SDS011;3267;48.794;9.928;2023-06-10T16:57:36;3.10;;;2.15;;
6467;SDS011;3267;48.794;9.928;2023-06-10T17:00:02;2.42;;;2.22;;
6467;SDS011;3267;48.794;9.928;2023-06-10T17:02:28;2.10;;;2.00;;
6467;SDS011;3267;48.794;9.928;2023-06-10T17:04:54;2.78;;;2.15;;
6467;SDS011;3267;48.794;9.928;2023-06-10T17:07:20;2.10;;;2.00;;
6467;SDS011;3267;48.794;9.928;2023-06-10T17:09:48;2.03;;;1.90;;
6467;SDS011;3267;48.794;9.928;2023-06-10T17:12:14;2.55;;;2.35;;
6467;SDS011;3267;48.794;9.928;2023-06-10T17:14:40;5.43;;;2.60;;
6467;SDS011;3267;48.794;9.928;2023-06-10T17:17:05;2.40;;;2.20;;
6467;SDS011;3267;48.794;9.928;2023-06-10T17:19:31;2.38;;;2.17;;
6467;SDS011;3267;48.794;9.928;2023-06-10T17:21:57;2.60;;;2.10;;
6467;SDS011;3267;48.794;9.928;2023-06-10T17:24:23;2.47;;;2.30;;
6467;SDS011;3267;48.794;9.928;2023-06-10T17:26:49;2.50;;;2.30;;
6467;SDS011;3267;48.794;9.928;2023-06-10T17:29:15;2.85;;;2.40;;
6467;SDS011;3267;48.794;9.928;2023-06-10T17:31:40;2.20;;;2.10;;
6467;SDS011;3267;48.794;9.928;2023-06-10T17:34:06;6.35;;;2.40;;
6467;SDS011;3267;48.794;9.928;2023-06-10T17:36:32;2.10;;;2.00;;
6467;SDS011;3267;48.794;9.928;2023-06-10T17:38:57;4.90;;;2.25;;
6467;SDS011;3267;48.794;9.928;2023-06-10T17:41:23;2.35;;;2.20;;
6467;SDS011;3267;48.794;9.928;2023-06-10T17:43:48;2.58;;;2.30;;
6467;SDS011;3267;48.794;9.928;2023-06-10T17:46:14;2.45;;;2.30;;
6467;SDS011;3267;48.794;9.928;2023-06-10T17:48:40;2.22;;;2.13;;
6467;SDS011;3267;48.794;9.928;2023-06-10T17:51:05;2.38;;;2.17;;
6467;SDS011;3267;48.794;9.928;2023-06-10T17:53:31;2.45;;;2.25;;
6467;SDS011;3267;48.794;9.928;2023-06-10T17:55:57;2.38;;;2.28;;
6467;SDS011;3267;48.794;9.928;2023-06-10T17:58:22;4.15;;;2.63;;
6467;SDS011;3267;48.794;9.928;2023-06-10T18:00:48;4.72;;;2.47;;
6467;SDS011;3267;48.794;9.928;2023-06-10T18:03:14;3.75;;;2.47;;
6467;SDS011;3267;48.794;9.928;2023-06-10T18:05:43;3.25;;;2.95;;
6467;SDS011;3267;48.794;9.928;2023-06-10T18:08:09;4.68;;;2.20;;
6467;SDS011;3267;48.794;9.928;2023-06-10T18:10:34;2.00;;;1.90;;
6467;SDS011;3267;48.794;9.928;2023-06-10T18:13:00;2.20;;;2.10;;
6467;SDS011;3267;48.794;9.928;2023-06-10T18:15:26;2.15;;;2.05;;
6467;SDS011;3267;48.794;9.928;2023-06-10T18:17:54;2.58;;;2.42;;
6467;SDS011;3267;48.794;9.928;2023-06-10T18:20:20;2.65;;;2.45;;
6467;SDS011;3267;48.794;9.928;2023-06-10T18:22:46;5.65;;;2.40;;
6467;SDS011;3267;48.794;9.928;2023-06-10T18:25:11;4.18;;;2.55;;
6467;SDS011;3267;48.794;9.928;2023-06-10T18:27:37;2.45;;;2.25;;
6467;SDS011;3267;48.794;9.928;2023-06-10T18:30:03;2.17;;;2.00;;
6467;SDS011;3267;48.794;9.928;2023-06-10T18:32:29;2.30;;;2.20;;
6467;SDS011;3267;48.794;9.928;2023-06-10T18:34:54;4.18;;;1.95;;
6467;SDS011;3267;48.794;9.928;2023-06-10T18:37:20;3.85;;;2.30;;
6467;SDS011;3267;48.794;9.928;2023-06-10T18:39:45;2.40;;;2.20;;
6467;SDS011;3267;48.794;9.928;2023-06-10T18:42:11;2.15;;;2.03;;
6467;SDS011;3267;48.794;9.928;2023-06-10T18:44:37;2.13;;;1.92;;
6467;SDS011;3267;48.794;9.928;2023-06-10T18:47:02;4.40;;;2.05;;
6467;SDS011;3267;48.794;9.928;2023-06-10T18:49:28;2.20;;;2.00;;
6467;SDS011;3267;48.794;9.928;2023-06-10T18:51:54;2.10;;;2.00;;
6467;SDS011;3267;48.794;9.928;2023-06-10T18:54:20;2.13;;;1.85;;
6467;SDS011;3267;48.794;9.928;2023-06-10T18:56:45;2.00;;;1.90;;
6467;SDS011;3267;48.794;9.928;2023-06-10T18:59:11;2.22;;;2.03;;
6467;SDS011;3267;48.794;9.928;2023-06-10T19:01:37;1.98;;;1.88;;
6467;SDS011;3267;48.794;9.928;2023-06-10T19:04:02;4.28;;;1.98;;
6467;SDS011;3267;48.794;9.928;2023-06-10T19:06:28;2.55;;;2.35;;
6467;SDS011;3267;48.794;9.928;2023-06-10T19:08:54;2.15;;;2.05;;
6467;SDS011;3267;48.794;9.928;2023-06-10T19:11:20;1.80;;;1.70;;
6467;SDS011;3267;48.794;9.928;2023-06-10T19:13:46;2.00;;;1.90;;
6467;SDS011;3267;48.794;9.928;2023-06-10T19:16:12;2.33;;;2.22;;
6467;SDS011;3267;48.794;9.928;2023-06-10T19:18:38;2.83;;;2.63;;
6467;SDS011;3267;48.794;9.928;2023-06-10T19:21:04;1.67;;;1.58;;
6467;SDS011;3267;48.794;9.928;2023-06-10T19:23:29;2.85;;;1.70;;
6467;SDS011;3267;48.794;9.928;2023-06-10T19:25:55;1.73;;;1.50;;
6467;SDS011;3267;48.794;9.928;2023-06-10T19:28:21;2.40;;;1.80;;